sensor_id;sensor_type;location;lat;lon;timestamp;temperature;humidity
52565;DHT22;38460;53.106;7.004;2023-08-12T00:01:11;20.20;99.90
52565;DHT22;38460;53.106;7.004;2023-08-12T00:03:37;20.20;99.90
52565;DHT22;38460;53.106;7.004;2023-08-12T00:06:02;20.20;99.90
52565;DHT22;38460;53.106;7.004;2023-08-12T00:08:31;20.20;99.90
52565;DHT22;38460;53.106;7.004;2023-08-12T00:10:57;20.10;99.90
52565;DHT22;38460;53.106;7.004;2023-08-12T00:13:22;20.10;99.90
52565;DHT22;38460;53.106;7.004;2023-08-12T00:15:48;20.10;99.90
52565;DHT22;38460;53.106;7.004;2023-08-12T00:18:14;20.10;99.90
52565;DHT22;38460;53.106;7.004;2023-08-12T00:20:41;20.10;99.90
52565;DHT22;38460;53.106;7.004;2023-08-12T00:23:08;20.10;99.90
52565;DHT22;38460;53.106;7.004;2023-08-12T00:25:34;20.10;99.90
52565;DHT22;38460;53.106;7.004;2023-08-12T00:28:00;20.00;99.90
52565;DHT22;38460;53.106;7.004;2023-08-12T00:30:25;20.00;99.90
52565;DHT22;38460;53.106;7.004;2023-08-12T00:32:51;20.00;99.90
52565;DHT22;38460;53.106;7.004;2023-08-12T00:35:17;20.00;99.90
52565;DHT22;38460;53.106;7.004;2023-08-12T00:37:43;20.00;99.90
52565;DHT22;38460;53.106;7.004;2023-08-12T00:40:09;19.90;99.90
52565;DHT22;38460;53.106;7.004;2023-08-12T00:42:35;19.90;99.90
52565;DHT22;38460;53.106;7.004;2023-08-12T00:45:01;19.90;99.90
52565;DHT22;38460;53.106;7.004;2023-08-12T00:47:28;19.90;99.90
52565;DHT22;38460;53.106;7.004;2023-08-12T00:49:54;19.80;99.90
52565;DHT22;38460;53.106;7.004;2023-08-12T00:52:23;19.80;99.90
52565;DHT22;38460;53.106;7.004;2023-08-12T00:54:48;19.80;99.90
52565;DHT22;38460;53.106;7.004;2023-08-12T00:57:14;19.80;99.90
52565;DHT22;38460;53.106;7.004;2023-08-12T00:59:41;19.80;99.90
52565;DHT22;38460;53.106;7.004;2023-08-12T01:02:09;19.80;99.90
52565;DHT22;38460;53.106;7.004;2023-08-12T01:04:36;19.70;99.90
52565;DHT22;38460;53.106;7.004;2023-08-12T01:07:02;19.70;99.90
52565;DHT22;38460;53.106;7.004;2023-08-12T01:09:29;19.70;99.90
52565;DHT22;38460;53.106;7.004;2023-08-12T01:12:13;19.70;99.90
52565;DHT22;38460;53.106;7.004;2023-08-12T01:14:50;19.70;99.90
52565;DHT22;38460;53.106;7.004;2023-08-12T01:17:16;19.60;99.90
52565;DHT22;38460;53.106;7.004;2023-08-12T01:19:43;19.60;99.90
52565;DHT22;38460;53.106;7.004;2023-08-12T01:22:11;19.60;99.90
52565;DHT22;38460;53.106;7.004;2023-08-12T01:24:42;19.60;99.90
52565;DHT22;38460;53.106;7.004;2023-08-12T01:27:10;19.60;99.90
52565;DHT22;38460;53.106;7.004;2023-08-12T01:29:46;19.60;99.90
52565;DHT22;38460;53.106;7.004;2023-08-12T01:32:36;19.50;99.90
52565;DHT22;38460;53.106;7.004;2023-08-12T01:35:19;19.60;99.90
52565;DHT22;38460;53.106;7.004;2023-08-12T01:37:48;19.50;99.90
52565;DHT22;38460;53.106;7.004;2023-08-12T01:40:16;19.50;99.90
52565;DHT22;38460;53.106;7.004;2023-08-12T01:42:42;19.50;99.90
52565;DHT22;38460;53.106;7.004;2023-08-12T01:45:08;19.50;99.90
52565;DHT22;38460;53.106;7.004;2023-08-12T01:47:34;19.50;99.90
52565;DHT22;38460;53.106;7.004;2023-08-12T01:50:00;19.50;99.90
52565;DHT22;38460;53.106;7.004;2023-08-12T01:52:26;19.40;99.90
52565;DHT22;38460;53.106;7.004;2023-08-12T01:54:52;19.40;99.90
52565;DHT22;38460;53.106;7.004;2023-08-12T01:57:17;19.40;99.90
52565;DHT22;38460;53.106;7.004;2023-08-12T01:59:43;19.40;99.90
52565;DHT22;38460;53.106;7.004;2023-08-12T02:02:10;19.30;99.90
52565;DHT22;38460;53.106;7.004;2023-08-12T02:04:36;19.30;99.90
52565;DHT22;38460;53.106;7.004;2023-08-12T02:07:03;19.30;99.90
52565;DHT22;38460;53.106;7.004;2023-08-12T02:09:29;19.30;99.90
52565;DHT22;38460;53.106;7.004;2023-08-12T02:11:56;19.30;99.90
52565;DHT22;38460;53.106;7.004;2023-08-12T02:14:22;19.30;99.90
52565;DHT22;38460;53.106;7.004;2023-08-12T02:16:47;19.30;99.90
52565;DHT22;38460;53.106;7.004;2023-08-12T02:19:13;19.20;99.90
52565;DHT22;38460;53.106;7.004;2023-08-12T02:21:39;19.20;99.90
52565;DHT22;38460;53.106;7.004;2023-08-12T02:24:05;19.20;99.90
52565;DHT22;38460;53.106;7.004;2023-08-12T02:26:31;19.20;99.90
52565;DHT22;38460;53.106;7.004;2023-08-12T02:28:57;19.20;99.90
52565;DHT22;38460;53.106;7.004;2023-08-12T02:31:23;19.20;99.90
52565;DHT22;38460;53.106;7.004;2023-08-12T02:33:48;19.20;99.90
52565;DHT22;38460;53.106;7.004;2023-08-12T02:36:17;19.20;99.90
52565;DHT22;38460;53.106;7.004;2023-08-12T02:38:42;19.20;99.90
52565;DHT22;38460;53.106;7.004;2023-08-12T02:41:08;19.20;99.90
52565;DHT22;38460;53.106;7.004;2023-08-12T02:43:34;19.20;99.90
52565;DHT22;38460;53.106;7.004;2023-08-12T02:46:00;19.20;99.90
52565;DHT22;38460;53.106;7.004;2023-08-12T02:48:26;19.20;99.90
52565;DHT22;38460;53.106;7.004;2023-08-12T02:50:52;19.20;99.90
52565;DHT22;38460;53.106;7.004;2023-08-12T02:53:18;19.20;99.90
52565;DHT22;38460;53.106;7.004;2023-08-12T02:55:46;19.20;99.90
52565;DHT22;38460;53.106;7.004;2023-08-12T02:58:12;19.20;99.90
52565;DHT22;38460;53.106;7.004;2023-08-12T03:00:41;19.20;99.90
52565;DHT22;38460;53.106;7.004;2023-08-12T03:03:09;19.20;99.90
52565;DHT22;38460;53.106;7.004;2023-08-12T03:05:35;19.20;99.90
52565;DHT22;38460;53.106;7.004;2023-08-12T03:08:01;19.20;99.90
52565;DHT22;38460;53.106;7.004;2023-08-12T03:10:29;19.10;99.90
52565;DHT22;38460;53.106;7.004;2023-08-12T03:12:55;19.10;99.90
52565;DHT22;38460;53.106;7.004;2023-08-12T03:15:21;19.10;99.90
52565;DHT22;38460;53.106;7.004;2023-08-12T03:17:47;19.10;99.90
52565;DHT22;38460;53.106;7.004;2023-08-12T03:20:12;19.10;99.90
52565;DHT22;38460;53.106;7.004;2023-08-12T03:22:38;19.10;99.90
52565;DHT22;38460;53.106;7.004;2023-08-12T03:25:05;19.10;99.90
52565;DHT22;38460;53.106;7.004;2023-08-12T03:27:31;19.10;99.90
52565;DHT22;38460;53.106;7.004;2023-08-12T03:29:57;19.10;99.90
52565;DHT22;38460;53.106;7.004;2023-08-12T03:32:24;19.10;99.90
52565;DHT22;38460;53.106;7.004;2023-08-12T03:34:50;19.10;99.90
52565;DHT22;38460;53.106;7.004;2023-08-12T03:37:15;19.20;99.90
52565;DHT22;38460;53.106;7.004;2023-08-12T03:39:41;19.10;99.90
52565;DHT22;38460;53.106;7.004;2023-08-12T03:42:07;19.10;99.90
52565;DHT22;38460;53.106;7.004;2023-08-12T03:44:32;19.10;99.90
52565;DHT22;38460;53.106;7.004;2023-08-12T03:46:58;19.10;99.90
52565;DHT22;38460;53.106;7.004;2023-08-12T03:49:24;19.10;99.90
52565;DHT22;38460;53.106;7.004;2023-08-12T03:51:50;19.10;99.90
52565;DHT22;38460;53.106;7.004;2023-08-12T03:54:15;19.10;99.90
52565;DHT22;38460;53.106;7.004;2023-08-12T03:56:41;19.00;99.90
52565;DHT22;38460;53.106;7.004;2023-08-12T03:59:07;19.00;99.90
52565;DHT22;38460;53.106;7.004;2023-08-12T04:01:32;19.00;99.90
52565;DHT22;38460;53.106;7.004;2023-08-12T04:03:58;19.00;99.90
52565;DHT22;38460;53.106;7.004;2023-08-12T04:06:24;19.00;99.90
52565;DHT22;38460;53.106;7.004;2023-08-12T04:08:50;19.00;99.90
52565;DHT22;38460;53.106;7.004;2023-08-12T04:11:15;19.00;99.90
52565;DHT22;38460;53.106;7.004;2023-08-12T04:13:41;19.00;99.90
52565;DHT22;38460;53.106;7.004;2023-08-12T04:16:07;19.00;99.90
52565;DHT22;38460;53.106;7.004;2023-08-12T04:18:32;19.00;99.90
52565;DHT22;38460;53.106;7.004;2023-08-12T04:20:58;19.00;99.90
52565;DHT22;38460;53.106;7.004;2023-08-12T04:23:24;19.00;99.90
52565;DHT22;38460;53.106;7.004;2023-08-12T04:25:51;19.10;99.90
52565;DHT22;38460;53.106;7.004;2023-08-12T04:28:18;19.00;99.90
52565;DHT22;38460;53.106;7.004;2023-08-12T04:30:48;19.10;99.90
52565;DHT22;38460;53.106;7.004;2023-08-12T04:33:16;19.00;99.90
52565;DHT22;38460;53.106;7.004;2023-08-12T04:35:42;19.00;99.90
52565;DHT22;38460;53.106;7.004;2023-08-12T04:38:08;19.00;99.90
52565;DHT22;38460;53.106;7.004;2023-08-12T04:40:34;19.00;99.90
52565;DHT22;38460;53.106;7.004;2023-08-12T04:42:59;19.00;99.90
52565;DHT22;38460;53.106;7.004;2023-08-12T04:45:25;19.00;99.90
52565;DHT22;38460;53.106;7.004;2023-08-12T04:47:52;19.00;99.90
52565;DHT22;38460;53.106;7.004;2023-08-12T04:50:18;19.00;99.90
52565;DHT22;38460;53.106;7.004;2023-08-12T04:52:44;19.10;99.90
52565;DHT22;38460;53.106;7.004;2023-08-12T04:55:09;19.10;99.90
52565;DHT22;38460;53.106;7.004;2023-08-12T04:57:38;19.10;99.90
52565;DHT22;38460;53.106;7.004;2023-08-12T05:00:05;19.10;99.90
52565;DHT22;38460;53.106;7.004;2023-08-12T05:02:34;19.10;99.90
52565;DHT22;38460;53.106;7.004;2023-08-12T05:05:00;19.10;99.90
52565;DHT22;38460;53.106;7.004;2023-08-12T05:07:26;19.10;99.90
52565;DHT22;38460;53.106;7.004;2023-08-12T05:09:52;19.10;99.90
52565;DHT22;38460;53.106;7.004;2023-08-12T05:12:18;19.10;99.90
52565;DHT22;38460;53.106;7.004;2023-08-12T05:14:44;19.10;99.90
52565;DHT22;38460;53.106;7.004;2023-08-12T05:17:09;19.10;99.90
52565;DHT22;38460;53.106;7.004;2023-08-12T05:19:35;19.10;99.90
52565;DHT22;38460;53.106;7.004;2023-08-12T05:22:01;19.10;99.90
52565;DHT22;38460;53.106;7.004;2023-08-12T05:24:27;19.10;99.90
52565;DHT22;38460;53.106;7.004;2023-08-12T05:26:53;19.10;99.90
52565;DHT22;38460;53.106;7.004;2023-08-12T05:29:19;19.10;99.90
52565;DHT22;38460;53.106;7.004;2023-08-12T05:31:45;19.20;99.90
52565;DHT22;38460;53.106;7.004;2023-08-12T05:34:10;19.10;99.90
52565;DHT22;38460;53.106;7.004;2023-08-12T05:36:36;19.20;99.90
52565;DHT22;38460;53.106;7.004;2023-08-12T05:39:02;19.10;99.90
52565;DHT22;38460;53.106;7.004;2023-08-12T05:41:29;19.20;99.90
52565;DHT22;38460;53.106;7.004;2023-08-12T05:43:54;19.20;99.90
52565;DHT22;38460;53.106;7.004;2023-08-12T05:46:20;19.20;99.90
52565;DHT22;38460;53.106;7.004;2023-08-12T05:48:46;19.20;99.90
52565;DHT22;38460;53.106;7.004;2023-08-12T05:51:12;19.20;99.90
52565;DHT22;38460;53.106;7.004;2023-08-12T05:53:38;19.20;99.90
52565;DHT22;38460;53.106;7.004;2023-08-12T05:56:04;19.30;99.90
52565;DHT22;38460;53.106;7.004;2023-08-12T05:58:29;19.30;99.90
52565;DHT22;38460;53.106;7.004;2023-08-12T06:00:55;19.30;99.90
52565;DHT22;38460;53.106;7.004;2023-08-12T06:03:21;19.40;99.90
52565;DHT22;38460;53.106;7.004;2023-08-12T06:05:47;19.40;99.90
52565;DHT22;38460;53.106;7.004;2023-08-12T06:08:13;19.40;99.90
52565;DHT22;38460;53.106;7.004;2023-08-12T06:10:39;19.40;99.90
52565;DHT22;38460;53.106;7.004;2023-08-12T06:13:05;19.50;99.90
52565;DHT22;38460;53.106;7.004;2023-08-12T06:15:31;19.50;99.90
52565;DHT22;38460;53.106;7.004;2023-08-12T06:17:57;19.50;99.90
52565;DHT22;38460;53.106;7.004;2023-08-12T06:20:26;19.60;99.90
52565;DHT22;38460;53.106;7.004;2023-08-12T06:22:52;19.60;99.90
52565;DHT22;38460;53.106;7.004;2023-08-12T06:25:18;19.70;99.90
52565;DHT22;38460;53.106;7.004;2023-08-12T06:27:45;19.80;99.90
52565;DHT22;38460;53.106;7.004;2023-08-12T06:30:13;19.80;99.90
52565;DHT22;38460;53.106;7.004;2023-08-12T06:32:39;19.90;99.90
52565;DHT22;38460;53.106;7.004;2023-08-12T06:35:05;19.90;99.90
52565;DHT22;38460;53.106;7.004;2023-08-12T06:37:31;20.00;99.90
52565;DHT22;38460;53.106;7.004;2023-08-12T06:39:57;20.00;99.90
52565;DHT22;38460;53.106;7.004;2023-08-12T06:42:23;20.10;99.90
52565;DHT22;38460;53.106;7.004;2023-08-12T06:44:56;20.10;99.90
52565;DHT22;38460;53.106;7.004;2023-08-12T06:47:22;20.10;99.90
52565;DHT22;38460;53.106;7.004;2023-08-12T06:49:48;20.10;99.90
52565;DHT22;38460;53.106;7.004;2023-08-12T06:52:14;20.10;99.90
52565;DHT22;38460;53.106;7.004;2023-08-12T06:54:40;20.20;99.90
52565;DHT22;38460;53.106;7.004;2023-08-12T06:57:05;20.20;99.90
52565;DHT22;38460;53.106;7.004;2023-08-12T06:59:31;20.20;99.90
52565;DHT22;38460;53.106;7.004;2023-08-12T07:01:57;20.20;99.90
52565;DHT22;38460;53.106;7.004;2023-08-12T07:04:22;20.20;99.90
52565;DHT22;38460;53.106;7.004;2023-08-12T07:06:48;20.30;99.90
52565;DHT22;38460;53.106;7.004;2023-08-12T07:09:14;20.30;99.90
52565;DHT22;38460;53.106;7.004;2023-08-12T07:11:40;20.30;99.90
52565;DHT22;38460;53.106;7.004;2023-08-12T07:14:06;20.30;99.90
52565;DHT22;38460;53.106;7.004;2023-08-12T07:16:33;20.30;99.90
52565;DHT22;38460;53.106;7.004;2023-08-12T07:18:58;20.30;99.90
52565;DHT22;38460;53.106;7.004;2023-08-12T07:21:24;20.30;99.90
52565;DHT22;38460;53.106;7.004;2023-08-12T07:23:50;20.30;99.90
52565;DHT22;38460;53.106;7.004;2023-08-12T07:26:15;20.30;99.90
52565;DHT22;38460;53.106;7.004;2023-08-12T07:28:42;20.30;99.90
52565;DHT22;38460;53.106;7.004;2023-08-12T07:31:08;20.40;99.90
52565;DHT22;38460;53.106;7.004;2023-08-12T07:33:34;20.30;99.90
52565;DHT22;38460;53.106;7.004;2023-08-12T07:36:02;20.40;99.90
52565;DHT22;38460;53.106;7.004;2023-08-12T07:38:28;20.40;99.90
52565;DHT22;38460;53.106;7.004;2023-08-12T07:40:53;20.30;99.90
52565;DHT22;38460;53.106;7.004;2023-08-12T07:43:19;20.40;99.90
52565;DHT22;38460;53.106;7.004;2023-08-12T07:45:45;20.40;99.90
52565;DHT22;38460;53.106;7.004;2023-08-12T07:48:11;20.40;99.90
52565;DHT22;38460;53.106;7.004;2023-08-12T07:50:36;20.40;99.90
52565;DHT22;38460;53.106;7.004;2023-08-12T07:53:02;20.40;99.90
52565;DHT22;38460;53.106;7.004;2023-08-12T07:55:28;20.40;99.90
52565;DHT22;38460;53.106;7.004;2023-08-12T07:57:55;20.40;99.90
52565;DHT22;38460;53.106;7.004;2023-08-12T08:00:20;20.40;99.90
52565;DHT22;38460;53.106;7.004;2023-08-12T08:02:46;20.40;99.90
52565;DHT22;38460;53.106;7.004;2023-08-12T08:05:12;20.50;99.90
52565;DHT22;38460;53.106;7.004;2023-08-12T08:07:38;20.40;99.90
52565;DHT22;38460;53.106;7.004;2023-08-12T08:10:04;20.40;99.90
52565;DHT22;38460;53.106;7.004;2023-08-12T08:12:29;20.50;99.90
52565;DHT22;38460;53.106;7.004;2023-08-12T08:14:55;20.50;99.90
52565;DHT22;38460;53.106;7.004;2023-08-12T08:17:21;20.50;99.90
52565;DHT22;38460;53.106;7.004;2023-08-12T08:19:46;20.50;99.90
52565;DHT22;38460;53.106;7.004;2023-08-12T08:22:12;20.50;99.90
52565;DHT22;38460;53.106;7.004;2023-08-12T08:24:38;20.50;99.90
52565;DHT22;38460;53.106;7.004;2023-08-12T08:27:04;20.60;99.90
52565;DHT22;38460;53.106;7.004;2023-08-12T08:29:30;20.60;99.90
52565;DHT22;38460;53.106;7.004;2023-08-12T08:31:56;20.60;99.90
52565;DHT22;38460;53.106;7.004;2023-08-12T08:34:21;20.60;99.90
52565;DHT22;38460;53.106;7.004;2023-08-12T08:36:47;20.60;99.90
52565;DHT22;38460;53.106;7.004;2023-08-12T08:39:13;20.70;99.90
52565;DHT22;38460;53.106;7.004;2023-08-12T08:41:39;20.70;99.90
52565;DHT22;38460;53.106;7.004;2023-08-12T08:44:08;20.60;99.90
52565;DHT22;38460;53.106;7.004;2023-08-12T08:46:34;20.60;99.90
52565;DHT22;38460;53.106;7.004;2023-08-12T08:49:00;20.60;99.90
52565;DHT22;38460;53.106;7.004;2023-08-12T08:51:31;20.60;99.90
52565;DHT22;38460;53.106;7.004;2023-08-12T08:54:00;20.60;99.90
52565;DHT22;38460;53.106;7.004;2023-08-12T08:56:27;20.70;99.90
52565;DHT22;38460;53.106;7.004;2023-08-12T08:58:53;20.60;99.90
52565;DHT22;38460;53.106;7.004;2023-08-12T09:01:20;20.60;99.90
52565;DHT22;38460;53.106;7.004;2023-08-12T09:03:49;20.60;99.90
52565;DHT22;38460;53.106;7.004;2023-08-12T09:06:16;20.70;99.90
52565;DHT22;38460;53.106;7.004;2023-08-12T09:08:45;20.60;99.90
52565;DHT22;38460;53.106;7.004;2023-08-12T09:11:13;20.60;99.90
52565;DHT22;38460;53.106;7.004;2023-08-12T09:13:39;20.60;99.90
52565;DHT22;38460;53.106;7.004;2023-08-12T09:16:05;20.60;99.90
52565;DHT22;38460;53.106;7.004;2023-08-12T09:18:31;20.60;99.90
52565;DHT22;38460;53.106;7.004;2023-08-12T09:20:57;20.70;99.90
52565;DHT22;38460;53.106;7.004;2023-08-12T09:23:23;20.70;99.90
52565;DHT22;38460;53.106;7.004;2023-08-12T09:25:51;20.60;99.90
52565;DHT22;38460;53.106;7.004;2023-08-12T09:28:17;20.60;99.90
52565;DHT22;38460;53.106;7.004;2023-08-12T09:30:50;20.60;99.90
52565;DHT22;38460;53.106;7.004;2023-08-12T09:33:24;20.50;99.90
52565;DHT22;38460;53.106;7.004;2023-08-12T09:35:50;20.50;99.90
52565;DHT22;38460;53.106;7.004;2023-08-12T09:38:16;20.50;99.90
52565;DHT22;38460;53.106;7.004;2023-08-12T09:40:42;20.50;99.90
52565;DHT22;38460;53.106;7.004;2023-08-12T09:43:08;20.50;99.90
52565;DHT22;38460;53.106;7.004;2023-08-12T09:45:34;20.50;99.90
52565;DHT22;38460;53.106;7.004;2023-08-12T09:48:01;20.40;99.90
52565;DHT22;38460;53.106;7.004;2023-08-12T09:50:27;20.50;99.90
52565;DHT22;38460;53.106;7.004;2023-08-12T09:52:54;20.40;99.90
52565;DHT22;38460;53.106;7.004;2023-08-12T09:55:23;20.40;99.90
52565;DHT22;38460;53.106;7.004;2023-08-12T09:57:51;20.40;99.90
52565;DHT22;38460;53.106;7.004;2023-08-12T10:00:18;20.40;99.90
52565;DHT22;38460;53.106;7.004;2023-08-12T10:02:46;20.40;99.90
52565;DHT22;38460;53.106;7.004;2023-08-12T10:05:21;20.40;99.90
52565;DHT22;38460;53.106;7.004;2023-08-12T10:07:48;20.40;99.90
52565;DHT22;38460;53.106;7.004;2023-08-12T10:10:14;20.40;99.90
52565;DHT22;38460;53.106;7.004;2023-08-12T10:12:41;20.30;99.90
52565;DHT22;38460;53.106;7.004;2023-08-12T10:15:07;20.30;99.90
52565;DHT22;38460;53.106;7.004;2023-08-12T10:17:34;20.20;99.90
52565;DHT22;38460;53.106;7.004;2023-08-12T10:20:08;20.20;99.90
52565;DHT22;38460;53.106;7.004;2023-08-12T10:22:39;20.10;99.90
52565;DHT22;38460;53.106;7.004;2023-08-12T10:25:08;20.10;99.90
52565;DHT22;38460;53.106;7.004;2023-08-12T10:27:34;20.10;99.90
52565;DHT22;38460;53.106;7.004;2023-08-12T10:30:03;20.00;99.90
52565;DHT22;38460;53.106;7.004;2023-08-12T10:32:30;20.00;99.90
52565;DHT22;38460;53.106;7.004;2023-08-12T10:34:57;20.00;99.90
52565;DHT22;38460;53.106;7.004;2023-08-12T10:37:24;20.00;99.90
52565;DHT22;38460;53.106;7.004;2023-08-12T10:39:54;20.00;99.90
52565;DHT22;38460;53.106;7.004;2023-08-12T10:42:39;20.00;99.90
52565;DHT22;38460;53.106;7.004;2023-08-12T10:45:07;20.00;99.90
52565;DHT22;38460;53.106;7.004;2023-08-12T10:47:32;19.90;99.90
52565;DHT22;38460;53.106;7.004;2023-08-12T10:49:59;19.90;99.90
52565;DHT22;38460;53.106;7.004;2023-08-12T10:52:30;20.00;99.90
52565;DHT22;38460;53.106;7.004;2023-08-12T10:55:19;19.90;99.90
52565;DHT22;38460;53.106;7.004;2023-08-12T10:57:45;19.90;99.90
52565;DHT22;38460;53.106;7.004;2023-08-12T11:00:14;19.90;99.90
52565;DHT22;38460;53.106;7.004;2023-08-12T11:02:44;19.90;99.90
52565;DHT22;38460;53.106;7.004;2023-08-12T11:05:12;19.90;99.90
52565;DHT22;38460;53.106;7.004;2023-08-12T11:10:25;19.90;99.90
52565;DHT22;38460;53.106;7.004;2023-08-12T11:15:17;19.90;99.90
52565;DHT22;38460;53.106;7.004;2023-08-12T11:17:46;20.00;99.90
52565;DHT22;38460;53.106;7.004;2023-08-12T11:20:13;20.00;99.90
52565;DHT22;38460;53.106;7.004;2023-08-12T11:22:44;19.90;99.90
52565;DHT22;38460;53.106;7.004;2023-08-12T11:25:13;20.00;99.90
52565;DHT22;38460;53.106;7.004;2023-08-12T11:30:06;20.00;99.90
52565;DHT22;38460;53.106;7.004;2023-08-12T11:32:32;20.00;99.90
52565;DHT22;38460;53.106;7.004;2023-08-12T11:34:59;20.10;99.90
52565;DHT22;38460;53.106;7.004;2023-08-12T11:37:24;20.10;99.90
52565;DHT22;38460;53.106;7.004;2023-08-12T11:39:52;20.10;99.90
52565;DHT22;38460;53.106;7.004;2023-08-12T11:42:18;20.10;99.90
52565;DHT22;38460;53.106;7.004;2023-08-12T11:44:43;20.20;99.90
52565;DHT22;38460;53.106;7.004;2023-08-12T11:47:09;20.20;99.90
52565;DHT22;38460;53.106;7.004;2023-08-12T11:49:35;20.30;99.90
52565;DHT22;38460;53.106;7.004;2023-08-12T12:11:16;20.50;99.90
52565;DHT22;38460;53.106;7.004;2023-08-12T12:13:42;20.40;99.90
52565;DHT22;38460;53.106;7.004;2023-08-12T12:16:10;20.40;99.90
52565;DHT22;38460;53.106;7.004;2023-08-12T12:18:36;20.30;99.90
52565;DHT22;38460;53.106;7.004;2023-08-12T12:21:02;20.30;99.90
52565;DHT22;38460;53.106;7.004;2023-08-12T12:23:29;20.30;99.90
52565;DHT22;38460;53.106;7.004;2023-08-12T12:26:02;20.30;99.90
52565;DHT22;38460;53.106;7.004;2023-08-12T12:28:28;20.20;99.90
52565;DHT22;38460;53.106;7.004;2023-08-12T12:30:55;20.20;99.90
52565;DHT22;38460;53.106;7.004;2023-08-12T12:33:20;20.10;99.90
52565;DHT22;38460;53.106;7.004;2023-08-12T12:35:46;20.10;99.90
52565;DHT22;38460;53.106;7.004;2023-08-12T12:38:12;20.10;99.90
52565;DHT22;38460;53.106;7.004;2023-08-12T12:40:37;20.10;99.90
52565;DHT22;38460;53.106;7.004;2023-08-12T12:43:04;20.20;99.90
52565;DHT22;38460;53.106;7.004;2023-08-12T12:45:29;20.20;99.90
52565;DHT22;38460;53.106;7.004;2023-08-12T12:47:55;20.20;99.90
52565;DHT22;38460;53.106;7.004;2023-08-12T12:50:21;20.20;99.90
52565;DHT22;38460;53.106;7.004;2023-08-12T12:52:47;20.30;99.90
52565;DHT22;38460;53.106;7.004;2023-08-12T12:55:12;20.20;99.90
52565;DHT22;38460;53.106;7.004;2023-08-12T12:57:38;20.20;99.90
52565;DHT22;38460;53.106;7.004;2023-08-12T13:00:04;20.20;99.90
52565;DHT22;38460;53.106;7.004;2023-08-12T13:02:30;20.20;99.90
52565;DHT22;38460;53.106;7.004;2023-08-12T13:04:56;20.20;99.90
52565;DHT22;38460;53.106;7.004;2023-08-12T13:07:22;20.20;99.90
52565;DHT22;38460;53.106;7.004;2023-08-12T13:09:48;20.00;99.90
52565;DHT22;38460;53.106;7.004;2023-08-12T13:12:14;19.90;99.90
52565;DHT22;38460;53.106;7.004;2023-08-12T13:14:39;19.90;99.90
52565;DHT22;38460;53.106;7.004;2023-08-12T13:17:05;19.90;99.90
52565;DHT22;38460;53.106;7.004;2023-08-12T13:19:31;19.90;99.90
52565;DHT22;38460;53.106;7.004;2023-08-12T13:21:58;19.90;99.90
52565;DHT22;38460;53.106;7.004;2023-08-12T13:24:24;20.00;99.90
52565;DHT22;38460;53.106;7.004;2023-08-12T13:26:50;20.10;99.90
52565;DHT22;38460;53.106;7.004;2023-08-12T13:29:18;20.10;99.90
52565;DHT22;38460;53.106;7.004;2023-08-12T13:31:43;20.10;99.90
52565;DHT22;38460;53.106;7.004;2023-08-12T13:34:09;20.20;99.90
52565;DHT22;38460;53.106;7.004;2023-08-12T13:36:35;20.20;99.90
52565;DHT22;38460;53.106;7.004;2023-08-12T13:39:01;20.30;99.90
52565;DHT22;38460;53.106;7.004;2023-08-12T13:41:26;20.50;99.90
52565;DHT22;38460;53.106;7.004;2023-08-12T13:43:52;20.60;99.90
52565;DHT22;38460;53.106;7.004;2023-08-12T13:46:18;20.80;99.90
52565;DHT22;38460;53.106;7.004;2023-08-12T13:48:43;20.90;99.90
52565;DHT22;38460;53.106;7.004;2023-08-12T13:51:09;21.10;99.90
52565;DHT22;38460;53.106;7.004;2023-08-12T13:53:35;21.30;99.90
52565;DHT22;38460;53.106;7.004;2023-08-12T13:56:01;21.50;99.90
52565;DHT22;38460;53.106;7.004;2023-08-12T13:58:26;21.70;99.90
52565;DHT22;38460;53.106;7.004;2023-08-12T14:00:52;21.80;99.90
52565;DHT22;38460;53.106;7.004;2023-08-12T14:03:18;21.90;99.90
52565;DHT22;38460;53.106;7.004;2023-08-12T14:05:44;22.00;99.90
52565;DHT22;38460;53.106;7.004;2023-08-12T14:08:10;22.10;99.90
52565;DHT22;38460;53.106;7.004;2023-08-12T14:10:35;22.30;99.90
52565;DHT22;38460;53.106;7.004;2023-08-12T14:13:01;22.50;99.90
52565;DHT22;38460;53.106;7.004;2023-08-12T14:15:27;22.60;99.90
52565;DHT22;38460;53.106;7.004;2023-08-12T14:17:53;22.70;99.90
52565;DHT22;38460;53.106;7.004;2023-08-12T14:20:18;22.70;99.90
52565;DHT22;38460;53.106;7.004;2023-08-12T14:22:44;22.80;99.90
52565;DHT22;38460;53.106;7.004;2023-08-12T14:25:10;22.90;99.90
52565;DHT22;38460;53.106;7.004;2023-08-12T14:27:36;23.00;99.90
52565;DHT22;38460;53.106;7.004;2023-08-12T14:30:03;23.00;99.90
52565;DHT22;38460;53.106;7.004;2023-08-12T14:32:28;23.10;99.90
52565;DHT22;38460;53.106;7.004;2023-08-12T14:34:54;23.30;99.90
52565;DHT22;38460;53.106;7.004;2023-08-12T14:37:20;23.50;99.90
52565;DHT22;38460;53.106;7.004;2023-08-12T14:39:46;23.60;99.90
52565;DHT22;38460;53.106;7.004;2023-08-12T14:42:12;23.70;99.90
52565;DHT22;38460;53.106;7.004;2023-08-12T14:44:37;23.70;99.90
52565;DHT22;38460;53.106;7.004;2023-08-12T14:47:03;23.90;99.90
52565;DHT22;38460;53.106;7.004;2023-08-12T14:49:29;23.90;99.90
52565;DHT22;38460;53.106;7.004;2023-08-12T14:51:55;23.90;99.90
52565;DHT22;38460;53.106;7.004;2023-08-12T14:54:22;23.80;99.90
52565;DHT22;38460;53.106;7.004;2023-08-12T14:56:48;23.80;99.90
52565;DHT22;38460;53.106;7.004;2023-08-12T14:59:14;23.90;99.90
52565;DHT22;38460;53.106;7.004;2023-08-12T15:01:39;24.00;99.90
52565;DHT22;38460;53.106;7.004;2023-08-12T15:04:05;24.00;99.90
52565;DHT22;38460;53.106;7.004;2023-08-12T15:06:31;24.00;99.90
52565;DHT22;38460;53.106;7.004;2023-08-12T15:08:57;23.90;99.90
52565;DHT22;38460;53.106;7.004;2023-08-12T15:11:22;23.60;99.90
52565;DHT22;38460;53.106;7.004;2023-08-12T15:13:49;23.40;99.90
52565;DHT22;38460;53.106;7.004;2023-08-12T15:16:15;23.30;99.90
52565;DHT22;38460;53.106;7.004;2023-08-12T15:18:40;23.40;99.90
52565;DHT22;38460;53.106;7.004;2023-08-12T15:21:08;23.40;99.90
52565;DHT22;38460;53.106;7.004;2023-08-12T15:23:34;23.40;99.90
52565;DHT22;38460;53.106;7.004;2023-08-12T15:26:01;23.50;99.90
52565;DHT22;38460;53.106;7.004;2023-08-12T15:28:28;23.60;99.90
52565;DHT22;38460;53.106;7.004;2023-08-12T15:30:54;23.60;99.90
52565;DHT22;38460;53.106;7.004;2023-08-12T15:33:20;23.60;99.90
52565;DHT22;38460;53.106;7.004;2023-08-12T15:35:46;23.60;99.90
52565;DHT22;38460;53.106;7.004;2023-08-12T15:38:11;23.70;99.90
52565;DHT22;38460;53.106;7.004;2023-08-12T15:40:38;23.80;99.90
52565;DHT22;38460;53.106;7.004;2023-08-12T15:43:04;23.80;99.90
52565;DHT22;38460;53.106;7.004;2023-08-12T15:45:30;23.90;99.90
52565;DHT22;38460;53.106;7.004;2023-08-12T15:47:56;23.90;99.90
52565;DHT22;38460;53.106;7.004;2023-08-12T15:50:21;23.90;99.90
52565;DHT22;38460;53.106;7.004;2023-08-12T15:52:47;23.80;99.90